sensor_id;sensor_type;location;lat;lon;timestamp;P1;durP1;ratioP1;P2;durP2;ratioP2
48861;SDS011;34681;49.188;-0.374;2023-12-04T00:00:17;2.77;;;2.57;;
48861;SDS011;34681;49.188;-0.374;2023-12-04T00:02:43;3.57;;;3.27;;
48861;SDS011;34681;49.188;-0.374;2023-12-04T00:05:08;2.60;;;2.40;;
48861;SDS011;34681;49.188;-0.374;2023-12-04T00:07:33;2.70;;;2.50;;
48861;SDS011;34681;49.188;-0.374;2023-12-04T00:09:59;2.83;;;2.60;;
48861;SDS011;34681;49.188;-0.374;2023-12-04T00:12:24;5.10;;;3.33;;
48861;SDS011;34681;49.188;-0.374;2023-12-04T00:14:49;2.97;;;2.77;;
48861;SDS011;34681;49.188;-0.374;2023-12-04T00:17:15;3.23;;;2.97;;
48861;SDS011;34681;49.188;-0.374;2023-12-04T00:19:42;2.67;;;2.47;;
48861;SDS011;34681;49.188;-0.374;2023-12-04T00:22:07;2.90;;;2.70;;
48861;SDS011;34681;49.188;-0.374;2023-12-04T00:24:32;2.73;;;2.53;;
48861;SDS011;34681;49.188;-0.374;2023-12-04T00:26:57;3.20;;;3.00;;
48861;SDS011;34681;49.188;-0.374;2023-12-04T00:29:23;5.20;;;3.03;;
48861;SDS011;34681;49.188;-0.374;2023-12-04T00:31:48;2.97;;;2.67;;
48861;SDS011;34681;49.188;-0.374;2023-12-04T00:34:13;2.90;;;2.70;;
48861;SDS011;34681;49.188;-0.374;2023-12-04T00:36:39;2.60;;;2.40;;
48861;SDS011;34681;49.188;-0.374;2023-12-04T00:39:04;5.03;;;2.83;;
48861;SDS011;34681;49.188;-0.374;2023-12-04T00:41:30;3.57;;;3.13;;
48861;SDS011;34681;49.188;-0.374;2023-12-04T00:43:55;2.70;;;2.60;;
48861;SDS011;34681;49.188;-0.374;2023-12-04T00:46:20;3.90;;;3.60;;
48861;SDS011;34681;49.188;-0.374;2023-12-04T00:48:46;3.57;;;3.23;;
48861;SDS011;34681;49.188;-0.374;2023-12-04T00:51:11;2.93;;;2.73;;
48861;SDS011;34681;49.188;-0.374;2023-12-04T00:53:37;3.83;;;3.60;;
48861;SDS011;34681;49.188;-0.374;2023-12-04T00:56:02;3.50;;;3.30;;
48861;SDS011;34681;49.188;-0.374;2023-12-04T00:58:27;3.27;;;3.07;;
48861;SDS011;34681;49.188;-0.374;2023-12-04T01:00:53;3.30;;;3.10;;
48861;SDS011;34681;49.188;-0.374;2023-12-04T01:03:18;3.87;;;3.57;;
48861;SDS011;34681;49.188;-0.374;2023-12-04T01:05:43;3.40;;;3.13;;
48861;SDS011;34681;49.188;-0.374;2023-12-04T01:08:09;3.50;;;3.20;;
48861;SDS011;34681;49.188;-0.374;2023-12-04T01:10:34;3.20;;;3.00;;
48861;SDS011;34681;49.188;-0.374;2023-12-04T01:13:00;3.23;;;2.93;;
48861;SDS011;34681;49.188;-0.374;2023-12-04T01:15:25;2.83;;;2.63;;
48861;SDS011;34681;49.188;-0.374;2023-12-04T01:17:51;2.80;;;2.60;;
48861;SDS011;34681;49.188;-0.374;2023-12-04T01:20:16;3.27;;;3.17;;
48861;SDS011;34681;49.188;-0.374;2023-12-04T01:22:41;3.10;;;2.80;;
48861;SDS011;34681;49.188;-0.374;2023-12-04T01:25:07;3.10;;;2.90;;
48861;SDS011;34681;49.188;-0.374;2023-12-04T01:27:33;2.50;;;2.40;;
48861;SDS011;34681;49.188;-0.374;2023-12-04T01:30:00;5.50;;;3.73;;
48861;SDS011;34681;49.188;-0.374;2023-12-04T01:32:26;3.70;;;3.40;;
48861;SDS011;34681;49.188;-0.374;2023-12-04T01:34:51;3.63;;;3.33;;
48861;SDS011;34681;49.188;-0.374;2023-12-04T01:37:16;3.90;;;2.87;;
48861;SDS011;34681;49.188;-0.374;2023-12-04T01:39:42;3.63;;;3.43;;
48861;SDS011;34681;49.188;-0.374;2023-12-04T01:42:07;4.30;;;3.67;;
48861;SDS011;34681;49.188;-0.374;2023-12-04T01:44:32;3.40;;;3.10;;
48861;SDS011;34681;49.188;-0.374;2023-12-04T01:46:57;2.83;;;2.63;;
48861;SDS011;34681;49.188;-0.374;2023-12-04T01:49:23;3.30;;;3.10;;
48861;SDS011;34681;49.188;-0.374;2023-12-04T01:51:49;3.20;;;3.00;;
48861;SDS011;34681;49.188;-0.374;2023-12-04T01:54:14;3.30;;;3.10;;
48861;SDS011;34681;49.188;-0.374;2023-12-04T01:56:41;3.23;;;2.27;;
48861;SDS011;34681;49.188;-0.374;2023-12-04T01:59:07;2.73;;;2.60;;
48861;SDS011;34681;49.188;-0.374;2023-12-04T02:01:33;2.70;;;2.60;;
48861;SDS011;34681;49.188;-0.374;2023-12-04T02:03:58;3.77;;;3.00;;
48861;SDS011;34681;49.188;-0.374;2023-12-04T02:06:25;3.20;;;3.00;;
48861;SDS011;34681;49.188;-0.374;2023-12-04T02:08:50;3.33;;;3.13;;
48861;SDS011;34681;49.188;-0.374;2023-12-04T02:11:16;3.00;;;2.80;;
48861;SDS011;34681;49.188;-0.374;2023-12-04T02:13:41;2.53;;;2.33;;
48861;SDS011;34681;49.188;-0.374;2023-12-04T02:16:09;3.03;;;2.80;;
48861;SDS011;34681;49.188;-0.374;2023-12-04T02:18:35;3.33;;;3.03;;
48861;SDS011;34681;49.188;-0.374;2023-12-04T02:21:01;2.77;;;2.57;;
48861;SDS011;34681;49.188;-0.374;2023-12-04T02:23:27;3.33;;;3.13;;
48861;SDS011;34681;49.188;-0.374;2023-12-04T02:25:58;2.30;;;2.20;;
48861;SDS011;34681;49.188;-0.374;2023-12-04T02:28:26;2.83;;;2.63;;
48861;SDS011;34681;49.188;-0.374;2023-12-04T02:30:55;7.27;;;2.50;;
48861;SDS011;34681;49.188;-0.374;2023-12-04T02:33:23;2.33;;;2.23;;
48861;SDS011;34681;49.188;-0.374;2023-12-04T02:35:50;2.93;;;2.77;;
48861;SDS011;34681;49.188;-0.374;2023-12-04T02:38:16;2.90;;;2.70;;
48861;SDS011;34681;49.188;-0.374;2023-12-04T02:40:42;2.70;;;2.50;;
48861;SDS011;34681;49.188;-0.374;2023-12-04T02:43:08;2.50;;;2.30;;
48861;SDS011;34681;49.188;-0.374;2023-12-04T02:45:33;3.00;;;2.80;;
48861;SDS011;34681;49.188;-0.374;2023-12-04T02:47:59;3.67;;;3.00;;
48861;SDS011;34681;49.188;-0.374;2023-12-04T02:50:24;2.80;;;2.60;;
48861;SDS011;34681;49.188;-0.374;2023-12-04T02:52:49;2.60;;;2.40;;
48861;SDS011;34681;49.188;-0.374;2023-12-04T02:55:15;3.10;;;2.90;;
48861;SDS011;34681;49.188;-0.374;2023-12-04T02:57:40;3.37;;;3.17;;
48861;SDS011;34681;49.188;-0.374;2023-12-04T03:00:06;3.27;;;3.07;;
48861;SDS011;34681;49.188;-0.374;2023-12-04T03:02:31;3.77;;;3.47;;
48861;SDS011;34681;49.188;-0.374;2023-12-04T03:04:57;3.33;;;3.13;;
48861;SDS011;34681;49.188;-0.374;2023-12-04T03:07:22;3.20;;;2.93;;
48861;SDS011;34681;49.188;-0.374;2023-12-04T03:09:49;3.83;;;3.20;;
48861;SDS011;34681;49.188;-0.374;2023-12-04T03:12:14;2.60;;;2.50;;
48861;SDS011;34681;49.188;-0.374;2023-12-04T03:14:40;3.93;;;3.13;;
48861;SDS011;34681;49.188;-0.374;2023-12-04T03:17:05;3.30;;;3.10;;
48861;SDS011;34681;49.188;-0.374;2023-12-04T03:19:31;3.53;;;3.33;;
48861;SDS011;34681;49.188;-0.374;2023-12-04T03:21:56;3.80;;;3.50;;
48861;SDS011;34681;49.188;-0.374;2023-12-04T03:24:21;3.73;;;2.93;;
48861;SDS011;34681;49.188;-0.374;2023-12-04T03:26:47;2.73;;;2.53;;
48861;SDS011;34681;49.188;-0.374;2023-12-04T03:29:12;2.93;;;2.73;;
48861;SDS011;34681;49.188;-0.374;2023-12-04T03:31:38;3.73;;;3.40;;
48861;SDS011;34681;49.188;-0.374;2023-12-04T03:34:03;3.47;;;3.20;;
48861;SDS011;34681;49.188;-0.374;2023-12-04T03:36:29;3.10;;;2.90;;
48861;SDS011;34681;49.188;-0.374;2023-12-04T03:38:54;2.70;;;2.50;;
48861;SDS011;34681;49.188;-0.374;2023-12-04T03:41:19;3.27;;;2.90;;
48861;SDS011;34681;49.188;-0.374;2023-12-04T03:43:47;3.30;;;3.10;;
48861;SDS011;34681;49.188;-0.374;2023-12-04T03:46:12;3.00;;;2.80;;
48861;SDS011;34681;49.188;-0.374;2023-12-04T03:48:37;3.07;;;2.87;;
48861;SDS011;34681;49.188;-0.374;2023-12-04T03:51:03;3.73;;;3.53;;
48861;SDS011;34681;49.188;-0.374;2023-12-04T03:53:29;3.13;;;2.93;;
48861;SDS011;34681;49.188;-0.374;2023-12-04T03:55:57;4.53;;;3.00;;
48861;SDS011;34681;49.188;-0.374;2023-12-04T03:58:23;3.20;;;3.00;;
48861;SDS011;34681;49.188;-0.374;2023-12-04T04:00:48;3.40;;;3.20;;
48861;SDS011;34681;49.188;-0.374;2023-12-04T04:03:14;3.20;;;3.03;;
48861;SDS011;34681;49.188;-0.374;2023-12-04T04:05:40;3.10;;;2.90;;
48861;SDS011;34681;49.188;-0.374;2023-12-04T04:08:05;3.13;;;2.90;;
48861;SDS011;34681;49.188;-0.374;2023-12-04T04:10:32;3.83;;;3.50;;
48861;SDS011;34681;49.188;-0.374;2023-12-04T04:12:57;3.13;;;2.87;;
48861;SDS011;34681;49.188;-0.374;2023-12-04T04:15:23;3.10;;;2.90;;
48861;SDS011;34681;49.188;-0.374;2023-12-04T04:17:48;4.20;;;3.90;;
48861;SDS011;34681;49.188;-0.374;2023-12-04T04:20:14;3.53;;;3.23;;
48861;SDS011;34681;49.188;-0.374;2023-12-04T04:22:39;3.30;;;3.10;;
48861;SDS011;34681;49.188;-0.374;2023-12-04T04:25:09;3.37;;;3.17;;
48861;SDS011;34681;49.188;-0.374;2023-12-04T04:27:35;3.23;;;3.03;;
48861;SDS011;34681;49.188;-0.374;2023-12-04T04:30:00;3.13;;;2.93;;
48861;SDS011;34681;49.188;-0.374;2023-12-04T04:32:26;3.13;;;2.93;;
48861;SDS011;34681;49.188;-0.374;2023-12-04T04:34:51;3.10;;;2.60;;
48861;SDS011;34681;49.188;-0.374;2023-12-04T04:37:17;3.23;;;2.93;;
48861;SDS011;34681;49.188;-0.374;2023-12-04T04:39:42;3.10;;;2.90;;
48861;SDS011;34681;49.188;-0.374;2023-12-04T04:42:07;2.70;;;2.50;;
48861;SDS011;34681;49.188;-0.374;2023-12-04T04:44:33;3.27;;;2.80;;
48861;SDS011;34681;49.188;-0.374;2023-12-04T04:46:58;3.00;;;2.80;;
48861;SDS011;34681;49.188;-0.374;2023-12-04T04:49:24;2.60;;;2.40;;
48861;SDS011;34681;49.188;-0.374;2023-12-04T04:51:49;2.97;;;2.77;;
48861;SDS011;34681;49.188;-0.374;2023-12-04T04:54:15;2.93;;;2.73;;
48861;SDS011;34681;49.188;-0.374;2023-12-04T04:56:40;3.10;;;2.90;;
48861;SDS011;34681;49.188;-0.374;2023-12-04T04:59:05;2.80;;;2.60;;
48861;SDS011;34681;49.188;-0.374;2023-12-04T05:01:31;2.67;;;2.57;;
48861;SDS011;34681;49.188;-0.374;2023-12-04T05:03:56;2.47;;;2.37;;
48861;SDS011;34681;49.188;-0.374;2023-12-04T05:06:21;2.80;;;2.70;;
48861;SDS011;34681;49.188;-0.374;2023-12-04T05:08:47;5.20;;;2.33;;
48861;SDS011;34681;49.188;-0.374;2023-12-04T05:11:16;2.70;;;2.60;;
48861;SDS011;34681;49.188;-0.374;2023-12-04T05:13:42;2.30;;;2.20;;
48861;SDS011;34681;49.188;-0.374;2023-12-04T05:16:07;2.23;;;2.13;;
48861;SDS011;34681;49.188;-0.374;2023-12-04T05:18:33;2.67;;;2.47;;
48861;SDS011;34681;49.188;-0.374;2023-12-04T05:20:58;2.80;;;2.60;;
48861;SDS011;34681;49.188;-0.374;2023-12-04T05:23:24;2.03;;;1.93;;
48861;SDS011;34681;49.188;-0.374;2023-12-04T05:25:49;2.40;;;2.30;;
48861;SDS011;34681;49.188;-0.374;2023-12-04T05:28:14;2.40;;;2.30;;
48861;SDS011;34681;49.188;-0.374;2023-12-04T05:30:40;2.20;;;2.10;;
48861;SDS011;34681;49.188;-0.374;2023-12-04T05:33:05;2.50;;;2.37;;
48861;SDS011;34681;49.188;-0.374;2023-12-04T05:35:30;2.30;;;2.20;;
48861;SDS011;34681;49.188;-0.374;2023-12-04T05:37:59;2.43;;;2.30;;
48861;SDS011;34681;49.188;-0.374;2023-12-04T05:40:24;2.87;;;2.67;;
48861;SDS011;34681;49.188;-0.374;2023-12-04T05:42:50;3.40;;;2.50;;
48861;SDS011;34681;49.188;-0.374;2023-12-04T05:45:15;3.10;;;2.90;;
48861;SDS011;34681;49.188;-0.374;2023-12-04T05:47:40;3.23;;;3.03;;
48861;SDS011;34681;49.188;-0.374;2023-12-04T05:50:06;2.47;;;2.27;;
48861;SDS011;34681;49.188;-0.374;2023-12-04T05:52:32;2.30;;;2.20;;
48861;SDS011;34681;49.188;-0.374;2023-12-04T05:54:57;3.00;;;2.80;;
48861;SDS011;34681;49.188;-0.374;2023-12-04T05:57:23;2.23;;;2.13;;
48861;SDS011;34681;49.188;-0.374;2023-12-04T05:59:48;2.10;;;2.00;;
48861;SDS011;34681;49.188;-0.374;2023-12-04T06:02:13;3.33;;;1.97;;
48861;SDS011;34681;49.188;-0.374;2023-12-04T06:04:40;2.10;;;2.00;;
48861;SDS011;34681;49.188;-0.374;2023-12-04T06:07:05;2.70;;;2.60;;
48861;SDS011;34681;49.188;-0.374;2023-12-04T06:09:31;2.50;;;2.30;;
48861;SDS011;34681;49.188;-0.374;2023-12-04T06:11:57;1.90;;;1.80;;
48861;SDS011;34681;49.188;-0.374;2023-12-04T06:14:22;2.00;;;1.90;;
48861;SDS011;34681;49.188;-0.374;2023-12-04T06:16:48;2.33;;;2.13;;
48861;SDS011;34681;49.188;-0.374;2023-12-04T06:19:16;2.00;;;1.90;;
48861;SDS011;34681;49.188;-0.374;2023-12-04T06:21:44;2.03;;;1.93;;
48861;SDS011;34681;49.188;-0.374;2023-12-04T06:24:10;1.90;;;1.70;;
48861;SDS011;34681;49.188;-0.374;2023-12-04T06:26:36;1.90;;;1.80;;
48861;SDS011;34681;49.188;-0.374;2023-12-04T06:29:06;2.23;;;2.00;;
48861;SDS011;34681;49.188;-0.374;2023-12-04T06:31:32;2.10;;;1.77;;
48861;SDS011;34681;49.188;-0.374;2023-12-04T06:33:57;2.53;;;2.17;;
48861;SDS011;34681;49.188;-0.374;2023-12-04T06:36:23;2.00;;;1.90;;
48861;SDS011;34681;49.188;-0.374;2023-12-04T06:38:49;2.60;;;2.37;;
48861;SDS011;34681;49.188;-0.374;2023-12-04T06:41:16;3.40;;;2.57;;
48861;SDS011;34681;49.188;-0.374;2023-12-04T06:43:43;2.70;;;2.50;;
48861;SDS011;34681;49.188;-0.374;2023-12-04T06:46:10;2.50;;;2.30;;
48861;SDS011;34681;49.188;-0.374;2023-12-04T06:48:39;2.33;;;2.23;;
48861;SDS011;34681;49.188;-0.374;2023-12-04T06:51:06;3.40;;;3.10;;
48861;SDS011;34681;49.188;-0.374;2023-12-04T06:53:32;2.40;;;2.30;;
48861;SDS011;34681;49.188;-0.374;2023-12-04T06:55:57;2.63;;;2.43;;
48861;SDS011;34681;49.188;-0.374;2023-12-04T06:58:22;2.70;;;2.53;;
48861;SDS011;34681;49.188;-0.374;2023-12-04T07:00:50;4.00;;;3.00;;
48861;SDS011;34681;49.188;-0.374;2023-12-04T07:03:28;3.47;;;3.27;;
48861;SDS011;34681;49.188;-0.374;2023-12-04T07:05:54;3.30;;;3.00;;
48861;SDS011;34681;49.188;-0.374;2023-12-04T07:08:19;2.87;;;2.70;;
48861;SDS011;34681;49.188;-0.374;2023-12-04T07:10:44;3.73;;;3.20;;
48861;SDS011;34681;49.188;-0.374;2023-12-04T07:13:10;3.10;;;2.90;;
48861;SDS011;34681;49.188;-0.374;2023-12-04T07:15:37;6.07;;;2.93;;
48861;SDS011;34681;49.188;-0.374;2023-12-04T07:18:03;3.67;;;3.40;;
48861;SDS011;34681;49.188;-0.374;2023-12-04T07:20:28;3.53;;;3.20;;
48861;SDS011;34681;49.188;-0.374;2023-12-04T07:22:54;4.47;;;3.80;;
48861;SDS011;34681;49.188;-0.374;2023-12-04T07:25:19;4.53;;;4.13;;
48861;SDS011;34681;49.188;-0.374;2023-12-04T07:27:45;4.40;;;4.10;;
48861;SDS011;34681;49.188;-0.374;2023-12-04T07:30:11;10.40;;;4.23;;
48861;SDS011;34681;49.188;-0.374;2023-12-04T07:32:37;3.60;;;3.40;;
48861;SDS011;34681;49.188;-0.374;2023-12-04T07:35:03;5.03;;;3.00;;
48861;SDS011;34681;49.188;-0.374;2023-12-04T07:37:29;4.00;;;3.60;;
48861;SDS011;34681;49.188;-0.374;2023-12-04T07:39:56;3.10;;;2.90;;
48861;SDS011;34681;49.188;-0.374;2023-12-04T07:42:21;6.50;;;3.23;;
48861;SDS011;34681;49.188;-0.374;2023-12-04T07:44:47;4.67;;;3.50;;
48861;SDS011;34681;49.188;-0.374;2023-12-04T07:47:12;3.63;;;3.33;;
48861;SDS011;34681;49.188;-0.374;2023-12-04T07:49:38;6.37;;;3.13;;
48861;SDS011;34681;49.188;-0.374;2023-12-04T07:52:04;3.53;;;3.23;;
48861;SDS011;34681;49.188;-0.374;2023-12-04T07:54:29;4.10;;;3.17;;
48861;SDS011;34681;49.188;-0.374;2023-12-04T07:56:54;3.77;;;3.40;;
48861;SDS011;34681;49.188;-0.374;2023-12-04T07:59:20;3.27;;;3.07;;
48861;SDS011;34681;49.188;-0.374;2023-12-04T08:01:45;3.07;;;2.70;;
48861;SDS011;34681;49.188;-0.374;2023-12-04T08:04:10;2.47;;;2.37;;
48861;SDS011;34681;49.188;-0.374;2023-12-04T08:06:36;5.23;;;3.13;;
48861;SDS011;34681;49.188;-0.374;2023-12-04T08:09:01;3.23;;;2.93;;
48861;SDS011;34681;49.188;-0.374;2023-12-04T08:11:27;3.77;;;3.33;;
48861;SDS011;34681;49.188;-0.374;2023-12-04T08:13:53;4.63;;;2.70;;
48861;SDS011;34681;49.188;-0.374;2023-12-04T08:16:18;3.30;;;2.50;;
48861;SDS011;34681;49.188;-0.374;2023-12-04T08:18:45;3.17;;;2.97;;
48861;SDS011;34681;49.188;-0.374;2023-12-04T08:21:10;3.37;;;3.17;;
48861;SDS011;34681;49.188;-0.374;2023-12-04T08:23:36;2.37;;;2.27;;
48861;SDS011;34681;49.188;-0.374;2023-12-04T08:26:02;3.60;;;3.30;;
48861;SDS011;34681;49.188;-0.374;2023-12-04T08:28:28;3.13;;;2.83;;
48861;SDS011;34681;49.188;-0.374;2023-12-04T08:30:53;3.87;;;3.10;;
48861;SDS011;34681;49.188;-0.374;2023-12-04T08:33:18;3.23;;;2.97;;
48861;SDS011;34681;49.188;-0.374;2023-12-04T08:35:45;3.33;;;3.10;;
48861;SDS011;34681;49.188;-0.374;2023-12-04T08:38:11;2.60;;;2.40;;
48861;SDS011;34681;49.188;-0.374;2023-12-04T08:40:36;4.03;;;2.73;;
48861;SDS011;34681;49.188;-0.374;2023-12-04T08:43:01;7.70;;;3.20;;
48861;SDS011;34681;49.188;-0.374;2023-12-04T08:45:28;2.00;;;1.90;;
48861;SDS011;34681;49.188;-0.374;2023-12-04T08:47:54;1.90;;;1.80;;
48861;SDS011;34681;49.188;-0.374;2023-12-04T08:50:19;3.83;;;2.33;;
48861;SDS011;34681;49.188;-0.374;2023-12-04T08:52:45;3.10;;;2.33;;
48861;SDS011;34681;49.188;-0.374;2023-12-04T08:55:10;3.13;;;2.33;;
48861;SDS011;34681;49.188;-0.374;2023-12-04T08:57:35;2.17;;;2.00;;
48861;SDS011;34681;49.188;-0.374;2023-12-04T09:00:01;2.43;;;2.23;;
48861;SDS011;34681;49.188;-0.374;2023-12-04T09:02:28;3.07;;;2.30;;
48861;SDS011;34681;49.188;-0.374;2023-12-04T09:04:54;2.23;;;2.07;;
48861;SDS011;34681;49.188;-0.374;2023-12-04T09:07:19;2.43;;;2.23;;
48861;SDS011;34681;49.188;-0.374;2023-12-04T09:09:44;2.53;;;2.33;;
48861;SDS011;34681;49.188;-0.374;2023-12-04T09:12:11;1.97;;;1.87;;
48861;SDS011;34681;49.188;-0.374;2023-12-04T09:14:36;2.03;;;1.83;;
48861;SDS011;34681;49.188;-0.374;2023-12-04T09:17:02;4.17;;;2.27;;
48861;SDS011;34681;49.188;-0.374;2023-12-04T09:19:28;2.83;;;2.70;;
48861;SDS011;34681;49.188;-0.374;2023-12-04T09:21:54;4.03;;;2.37;;
48861;SDS011;34681;49.188;-0.374;2023-12-04T09:24:20;3.10;;;2.30;;
48861;SDS011;34681;49.188;-0.374;2023-12-04T09:26:45;3.10;;;2.90;;
48861;SDS011;34681;49.188;-0.374;2023-12-04T09:29:11;5.00;;;2.77;;
48861;SDS011;34681;49.188;-0.374;2023-12-04T09:31:37;3.00;;;2.37;;
48861;SDS011;34681;49.188;-0.374;2023-12-04T09:34:03;2.43;;;2.27;;
48861;SDS011;34681;49.188;-0.374;2023-12-04T09:36:28;2.60;;;2.50;;
48861;SDS011;34681;49.188;-0.374;2023-12-04T09:38:54;3.60;;;3.30;;
48861;SDS011;34681;49.188;-0.374;2023-12-04T09:41:20;2.57;;;2.37;;
48861;SDS011;34681;49.188;-0.374;2023-12-04T09:43:46;2.80;;;2.37;;
48861;SDS011;34681;49.188;-0.374;2023-12-04T09:46:12;4.80;;;2.63;;
48861;SDS011;34681;49.188;-0.374;2023-12-04T09:48:38;3.20;;;3.00;;
48861;SDS011;34681;49.188;-0.374;2023-12-04T09:51:05;3.23;;;3.03;;
48861;SDS011;34681;49.188;-0.374;2023-12-04T09:53:32;3.13;;;2.70;;
48861;SDS011;34681;49.188;-0.374;2023-12-04T09:55:59;3.50;;;3.20;;
48861;SDS011;34681;49.188;-0.374;2023-12-04T09:58:25;2.57;;;2.37;;
48861;SDS011;34681;49.188;-0.374;2023-12-04T10:00:54;2.57;;;2.47;;
48861;SDS011;34681;49.188;-0.374;2023-12-04T10:03:20;2.47;;;2.30;;
48861;SDS011;34681;49.188;-0.374;2023-12-04T10:05:45;2.60;;;2.40;;
48861;SDS011;34681;49.188;-0.374;2023-12-04T10:08:11;2.47;;;2.20;;
48861;SDS011;34681;49.188;-0.374;2023-12-04T10:10:36;2.17;;;2.00;;
48861;SDS011;34681;49.188;-0.374;2023-12-04T10:13:01;2.60;;;2.30;;
48861;SDS011;34681;49.188;-0.374;2023-12-04T10:15:28;2.50;;;2.30;;
48861;SDS011;34681;49.188;-0.374;2023-12-04T10:17:53;3.10;;;2.40;;
48861;SDS011;34681;49.188;-0.374;2023-12-04T10:20:19;4.63;;;2.83;;
48861;SDS011;34681;49.188;-0.374;2023-12-04T10:22:59;2.93;;;2.33;;
48861;SDS011;34681;49.188;-0.374;2023-12-04T10:25:29;2.67;;;2.27;;
48861;SDS011;34681;49.188;-0.374;2023-12-04T10:28:16;5.80;;;2.73;;
48861;SDS011;34681;49.188;-0.374;2023-12-04T10:30:41;4.70;;;2.63;;
48861;SDS011;34681;49.188;-0.374;2023-12-04T10:33:07;6.10;;;2.30;;
48861;SDS011;34681;49.188;-0.374;2023-12-04T10:35:33;3.20;;;2.40;;
48861;SDS011;34681;49.188;-0.374;2023-12-04T10:38:04;4.80;;;2.80;;
48861;SDS011;34681;49.188;-0.374;2023-12-04T10:40:30;2.80;;;2.17;;
48861;SDS011;34681;49.188;-0.374;2023-12-04T10:43:44;2.60;;;2.50;;
48861;SDS011;34681;49.188;-0.374;2023-12-04T10:45:48;2.70;;;2.50;;
48861;SDS011;34681;49.188;-0.374;2023-12-04T10:48:15;2.50;;;1.93;;
48861;SDS011;34681;49.188;-0.374;2023-12-04T10:50:42;3.70;;;2.40;;
48861;SDS011;34681;49.188;-0.374;2023-12-04T10:53:09;3.03;;;2.70;;
48861;SDS011;34681;49.188;-0.374;2023-12-04T10:55:36;2.30;;;1.90;;
48861;SDS011;34681;49.188;-0.374;2023-12-04T10:58:03;3.87;;;2.90;;
48861;SDS011;34681;49.188;-0.374;2023-12-04T11:00:48;6.27;;;3.20;;
48861;SDS011;34681;49.188;-0.374;2023-12-04T11:05:45;6.90;;;3.10;;
48861;SDS011;34681;49.188;-0.374;2023-12-04T11:08:16;2.83;;;2.63;;
48861;SDS011;34681;49.188;-0.374;2023-12-04T11:10:46;3.10;;;2.90;;
48861;SDS011;34681;49.188;-0.374;2023-12-04T11:13:21;4.10;;;3.30;;
48861;SDS011;34681;49.188;-0.374;2023-12-04T11:15:48;3.30;;;2.70;;
48861;SDS011;34681;49.188;-0.374;2023-12-04T11:18:17;3.83;;;2.30;;
48861;SDS011;34681;49.188;-0.374;2023-12-04T11:20:48;5.37;;;3.07;;
48861;SDS011;34681;49.188;-0.374;2023-12-04T11:23:23;4.90;;;2.53;;
48861;SDS011;34681;49.188;-0.374;2023-12-04T11:25:49;3.67;;;2.37;;
48861;SDS011;34681;49.188;-0.374;2023-12-04T11:28:15;3.40;;;3.07;;
48861;SDS011;34681;49.188;-0.374;2023-12-04T11:30:41;2.33;;;2.10;;
48861;SDS011;34681;49.188;-0.374;2023-12-04T11:33:07;3.90;;;2.60;;
48861;SDS011;34681;49.188;-0.374;2023-12-04T11:35:33;3.53;;;2.90;;
48861;SDS011;34681;49.188;-0.374;2023-12-04T11:37:59;2.80;;;2.60;;
48861;SDS011;34681;49.188;-0.374;2023-12-04T11:40:24;3.80;;;3.50;;
48861;SDS011;34681;49.188;-0.374;2023-12-04T11:42:49;8.17;;;3.03;;
48861;SDS011;34681;49.188;-0.374;2023-12-04T11:45:18;2.70;;;2.50;;
48861;SDS011;34681;49.188;-0.374;2023-12-04T11:47:48;5.33;;;2.90;;
48861;SDS011;34681;49.188;-0.374;2023-12-04T11:50:19;3.40;;;3.10;;
48861;SDS011;34681;49.188;-0.374;2023-12-04T11:52:46;3.00;;;2.80;;
48861;SDS011;34681;49.188;-0.374;2023-12-04T11:55:12;3.00;;;2.80;;
48861;SDS011;34681;49.188;-0.374;2023-12-04T11:57:41;2.70;;;2.50;;
48861;SDS011;34681;49.188;-0.374;2023-12-04T12:00:10;2.93;;;2.50;;
48861;SDS011;34681;49.188;-0.374;2023-12-04T12:02:38;3.07;;;2.87;;
48861;SDS011;34681;49.188;-0.374;2023-12-04T12:05:05;3.33;;;2.73;;
48861;SDS011;34681;49.188;-0.374;2023-12-04T12:07:30;2.70;;;2.50;;
48861;SDS011;34681;49.188;-0.374;2023-12-04T12:09:57;3.57;;;3.20;;
48861;SDS011;34681;49.188;-0.374;2023-12-04T12:12:22;3.63;;;3.10;;
48861;SDS011;34681;49.188;-0.374;2023-12-04T12:14:48;4.83;;;4.40;;
48861;SDS011;34681;49.188;-0.374;2023-12-04T12:17:13;6.23;;;4.33;;
48861;SDS011;34681;49.188;-0.374;2023-12-04T12:19:39;3.83;;;3.60;;
48861;SDS011;34681;49.188;-0.374;2023-12-04T12:22:04;4.03;;;3.73;;
48861;SDS011;34681;49.188;-0.374;2023-12-04T12:24:29;3.40;;;3.20;;
48861;SDS011;34681;49.188;-0.374;2023-12-04T12:26:55;3.80;;;3.33;;
48861;SDS011;34681;49.188;-0.374;2023-12-04T12:29:20;3.27;;;2.93;;
48861;SDS011;34681;49.188;-0.374;2023-12-04T12:31:46;3.03;;;2.73;;
48861;SDS011;34681;49.188;-0.374;2023-12-04T12:34:11;2.70;;;2.50;;
48861;SDS011;34681;49.188;-0.374;2023-12-04T12:36:36;2.73;;;2.53;;
48861;SDS011;34681;49.188;-0.374;2023-12-04T12:39:02;2.00;;;1.90;;
48861;SDS011;34681;49.188;-0.374;2023-12-04T12:41:33;1.90;;;1.80;;
48861;SDS011;34681;49.188;-0.374;2023-12-04T12:44:00;2.60;;;1.93;;
48861;SDS011;34681;49.188;-0.374;2023-12-04T12:46:25;2.30;;;2.20;;
48861;SDS011;34681;49.188;-0.374;2023-12-04T12:48:51;2.20;;;2.00;;
48861;SDS011;34681;49.188;-0.374;2023-12-04T12:51:17;4.57;;;2.23;;
48861;SDS011;34681;49.188;-0.374;2023-12-04T12:53:43;1.80;;;1.70;;
48861;SDS011;34681;49.188;-0.374;2023-12-04T12:56:09;2.60;;;1.70;;
48861;SDS011;34681;49.188;-0.374;2023-12-04T12:58:35;2.30;;;1.70;;
48861;SDS011;34681;49.188;-0.374;2023-12-04T13:01:00;1.70;;;1.60;;
48861;SDS011;34681;49.188;-0.374;2023-12-04T13:03:26;2.80;;;1.90;;
48861;SDS011;34681;49.188;-0.374;2023-12-04T13:05:53;2.30;;;2.10;;
48861;SDS011;34681;49.188;-0.374;2023-12-04T13:08:18;5.23;;;2.10;;
48861;SDS011;34681;49.188;-0.374;2023-12-04T13:10:43;9.47;;;3.10;;
48861;SDS011;34681;49.188;-0.374;2023-12-04T13:13:09;7.57;;;2.53;;
48861;SDS011;34681;49.188;-0.374;2023-12-04T13:15:36;2.93;;;1.67;;
48861;SDS011;34681;49.188;-0.374;2023-12-04T13:18:01;2.73;;;2.10;;
48861;SDS011;34681;49.188;-0.374;2023-12-04T13:20:27;2.97;;;2.00;;
48861;SDS011;34681;49.188;-0.374;2023-12-04T13:22:52;5.00;;;2.20;;
48861;SDS011;34681;49.188;-0.374;2023-12-04T13:25:18;2.27;;;1.97;;
48861;SDS011;34681;49.188;-0.374;2023-12-04T13:27:44;2.93;;;1.83;;
48861;SDS011;34681;49.188;-0.374;2023-12-04T13:30:09;3.93;;;1.70;;
48861;SDS011;34681;49.188;-0.374;2023-12-04T13:32:35;1.93;;;1.60;;
48861;SDS011;34681;49.188;-0.374;2023-12-04T13:35:01;3.40;;;1.83;;
48861;SDS011;34681;49.188;-0.374;2023-12-04T13:37:29;1.80;;;1.70;;
48861;SDS011;34681;49.188;-0.374;2023-12-04T13:39:58;3.00;;;1.93;;
48861;SDS011;34681;49.188;-0.374;2023-12-04T13:42:26;3.97;;;1.70;;
48861;SDS011;34681;49.188;-0.374;2023-12-04T13:45:10;2.13;;;1.93;;
48861;SDS011;34681;49.188;-0.374;2023-12-04T13:47:37;2.47;;;1.80;;
48861;SDS011;34681;49.188;-0.374;2023-12-04T13:50:03;3.13;;;2.67;;
48861;SDS011;34681;49.188;-0.374;2023-12-04T13:52:30;1.90;;;1.80;;
48861;SDS011;34681;49.188;-0.374;2023-12-04T13:54:58;1.50;;;1.40;;
48861;SDS011;34681;49.188;-0.374;2023-12-04T13:57:24;2.07;;;1.97;;
48861;SDS011;34681;49.188;-0.374;2023-12-04T13:59:53;2.00;;;1.90;;
48861;SDS011;34681;49.188;-0.374;2023-12-04T14:02:23;2.63;;;1.83;;
48861;SDS011;34681;49.188;-0.374;2023-12-04T14:04:48;2.17;;;1.80;;
48861;SDS011;34681;49.188;-0.374;2023-12-04T14:07:13;4.30;;;2.07;;
48861;SDS011;34681;49.188;-0.374;2023-12-04T14:09:39;2.27;;;1.93;;
48861;SDS011;34681;49.188;-0.374;2023-12-04T14:12:05;2.33;;;1.63;;
48861;SDS011;34681;49.188;-0.374;2023-12-04T14:14:31;2.07;;;1.87;;
48861;SDS011;34681;49.188;-0.374;2023-12-04T14:16:58;2.40;;;1.73;;
48861;SDS011;34681;49.188;-0.374;2023-12-04T14:19:23;2.13;;;2.00;;
48861;SDS011;34681;49.188;-0.374;2023-12-04T14:21:49;3.97;;;2.10;;
48861;SDS011;34681;49.188;-0.374;2023-12-04T14:24:14;1.80;;;1.70;;
48861;SDS011;34681;49.188;-0.374;2023-12-04T14:26:39;1.77;;;1.67;;
48861;SDS011;34681;49.188;-0.374;2023-12-04T14:29:05;2.20;;;2.00;;